Time;durP1;ratioP1;P1;durP2;ratioP2;P2;SDS_P1;SDS_P2;PMS_P1;PMS_P2;Temp;Humidity;BMP_temperature;BMP_pressure;BME280_temperature;BME280_humidity;BME280_pressure;Samples;Min_cycle;Max_cycle;Signal;HPM_P1;HPM_P2
2021/08/05 00:01:47;;;;;;;5.75;2.05;;;;;;;15.83;81.38;101071.81;5070999;28;20465;-68
2021/08/05 00:04:12;;;;;;;3.50;1.57;;;;;;;15.77;81.72;101069.84;5070588;28;20040;-68
2021/08/05 00:06:38;;;;;;;3.13;2.13;;;;;;;15.82;81.54;101070.13;5069616;28;20040;-68
2021/08/05 00:09:04;;;;;;;4.60;1.92;;;;;;;15.83;80.52;101070.97;5070542;28;20043;-68
2021/08/05 00:11:29;;;;;;;4.30;2.93;;;;;;;15.77;80.52;101066.34;5070790;28;20037;-68
2021/08/05 00:13:55;;;;;;;3.63;1.83;;;;;;;15.83;81.14;101073.66;5070571;28;20130;-68
2021/08/05 00:16:21;;;;;;;2.83;1.77;;;;;;;15.80;81.18;101074.88;5070566;28;20334;-68
2021/08/05 00:18:46;;;;;;;5.57;2.67;;;;;;;15.72;80.85;101072.28;5069801;28;20032;-68
2021/08/05 00:21:15;;;;;;;5.30;2.10;;;;;;;15.80;81.42;101068.66;5070396;28;20485;-68
2021/08/05 00:23:40;;;;;;;5.93;2.35;;;;;;;15.79;81.41;101064.28;5069474;28;20029;-69
2021/08/05 00:26:05;;;;;;;3.20;2.17;;;;;;;15.83;81.58;101061.03;5068997;28;20423;-68
2021/08/05 00:28:33;;;;;;;7.17;2.23;;;;;;;15.87;81.47;101066.03;5070486;28;20750;-68
2021/08/05 00:30:58;;;;;;;5.38;2.20;;;;;;;15.86;80.81;101064.38;5069400;28;20040;-69
2021/08/05 00:33:24;;;;;;;4.67;2.27;;;;;;;15.88;80.99;101065.03;5070498;28;20141;-69
2021/08/05 00:35:49;;;;;;;4.00;2.17;;;;;;;15.85;80.89;101062.69;5069838;28;20123;-68
2021/08/05 00:38:15;;;;;;;5.23;2.03;;;;;;;15.83;80.55;101061.03;5069533;28;20052;-68
2021/08/05 00:40:41;;;;;;;4.53;1.93;;;;;;;15.81;80.89;101051.47;5069285;28;20508;-68
2021/08/05 00:43:06;;;;;;;5.45;2.10;;;;;;;15.83;80.76;101058.34;5069308;28;20404;-68
2021/08/05 00:45:32;;;;;;;7.07;2.20;;;;;;;15.82;80.98;101039.69;5069109;28;20028;-68
2021/08/05 00:47:57;;;;;;;2.93;2.27;;;;;;;15.91;80.33;101049.31;5070149;28;20044;-68
2021/08/05 00:50:23;;;;;;;4.00;2.23;;;;;;;15.83;80.17;101034.13;5069018;28;20032;-68
2021/08/05 00:52:48;;;;;;;10.98;2.75;;;;;;;15.82;80.96;101042.38;5052459;28;20042;-68
2021/08/05 00:55:14;;;;;;;3.50;1.88;;;;;;;15.83;80.60;101036.81;5052558;28;20177;-68
2021/08/05 00:57:40;;;;;;;6.37;2.20;;;;;;;15.84;79.90;101045.72;5068864;28;20474;-69
2021/08/05 01:00:07;;;;;;;3.80;1.87;;;;;;;15.85;80.12;101035.78;5069354;28;20036;-69
2021/08/05 01:02:37;;;;;;;5.50;2.22;;;;;;;15.85;79.91;101044.69;5068874;28;20028;-68
2021/08/05 01:05:04;;;;;;;2.28;1.90;;;;;;;15.82;79.74;101037.00;5068884;28;20385;-68
2021/08/05 01:07:40;;;;;;;5.65;2.08;;;;;;;15.88;79.74;101043.50;5068538;28;20046;-68
2021/08/05 01:10:24;;;;;;;3.55;1.90;;;;;;;15.82;79.47;101037.81;5070162;28;20044;-68
2021/08/05 01:13:17;;;;;;;6.10;2.15;;;;;;;15.88;79.17;101040.78;5069004;28;20119;-68
2021/08/05 01:15:44;;;;;;;5.50;2.13;;;;;;;15.85;79.16;101033.94;5068712;28;20378;-68
2021/08/05 01:18:28;;;;;;;4.72;3.03;;;;;;;15.85;78.87;101025.84;5068809;28;20055;-69
2021/08/05 01:20:55;;;;;;;2.67;1.98;;;;;;;15.82;79.03;101031.59;5069008;28;20074;-68
2021/08/05 01:23:42;;;;;;;3.30;1.67;;;;;;;15.86;79.27;101026.69;5068730;28;20076;-69
2021/08/05 01:26:22;;;;;;;3.33;1.85;;;;;;;15.86;79.07;101026.69;5068665;28;20095;-68
2021/08/05 01:28:47;;;;;;;2.05;1.85;;;;;;;15.89;78.52;101024.44;5068337;28;20044;-68
2021/08/05 01:31:15;;;;;;;3.88;1.98;;;;;;;15.80;78.52;101022.88;5069109;28;20041;-69
2021/08/05 01:33:42;;;;;;;6.22;2.20;;;;;;;15.83;78.29;101019.81;5068830;28;20040;-68
2021/08/05 01:36:08;;;;;;;6.22;2.00;;;;;;;15.80;79.10;101017.50;5072116;28;20419;-68
2021/08/05 01:38:36;;;;;;;6.20;1.70;;;;;;;15.81;78.29;101013.78;5056212;28;20036;-69
2021/08/05 01:41:05;;;;;;;2.30;1.35;;;;;;;15.81;77.90;101020.00;5073119;28;20043;-68
2021/08/05 01:43:32;;;;;;;4.90;1.85;;;;;;;15.79;77.71;101010.47;5054578;28;20037;-69
2021/08/05 01:45:59;;;;;;;2.58;1.55;;;;;;;15.77;78.04;101013.31;5072288;28;20029;-68
2021/08/05 01:48:25;;;;;;;8.27;1.65;;;;;;;15.78;77.99;101012.31;5056005;28;20074;-68
2021/08/05 01:50:52;;;;;;;5.47;2.35;;;;;;;15.74;77.99;101011.03;5072701;28;20039;-68
2021/08/05 01:53:18;;;;;;;2.35;1.45;;;;;;;15.77;77.76;101017.88;5055802;28;20044;-69
2021/08/05 01:55:45;;;;;;;2.05;1.63;;;;;;;15.73;78.07;101017.44;5072435;28;20020;-69
2021/08/05 01:58:11;;;;;;;4.10;2.13;;;;;;;15.71;78.14;101010.56;5073365;28;20032;-68
2021/08/05 02:00:37;;;;;;;5.30;1.63;;;;;;;15.77;78.29;101005.25;5072631;28;20025;-69
2021/08/05 02:03:03;;;;;;;;;;;;;;;15.76;77.67;101000.06;5072746;28;20075;-69
2021/08/05 02:05:41;;;;;;;9.07;1.65;;;;;;;15.71;76.63;100999.78;5072173;28;19983;-69
2021/08/05 02:08:09;;;;;;;2.67;1.58;;;;;;;15.79;77.35;101005.91;5073279;28;20037;-68
2021/08/05 02:10:39;;;;;;;4.72;2.13;;;;;;;15.81;76.61;101003.03;5072341;28;20040;-69
2021/08/05 02:13:30;;;;;;;7.15;1.42;;;;;;;15.77;76.55;101007.13;5072328;28;20051;-68
2021/08/05 02:16:01;;;;;;;4.28;1.50;;;;;;;15.80;76.94;100995.97;5071961;28;20038;-69
2021/08/05 02:18:30;;;;;;;5.38;1.92;;;;;;;15.76;76.28;101000.06;5073250;28;20040;-69
2021/08/05 02:20:57;;;;;;;4.32;1.65;;;;;;;15.84;76.32;100999.94;5072045;28;20039;-68
2021/08/05 02:23:25;;;;;;;2.80;2.03;;;;;;;15.76;76.12;100992.00;5055620;28;20044;-69
2021/08/05 02:25:53;;;;;;;1.90;1.33;;;;;;;15.79;76.28;100988.91;5071560;28;20445;-68
2021/08/05 02:28:20;;;;;;;2.42;2.05;;;;;;;15.81;75.37;100989.56;5071563;28;20154;-69
2021/08/05 02:30:47;;;;;;;3.47;1.63;;;;;;;15.76;75.81;100992.00;5072804;28;20032;-69
2021/08/05 02:33:13;;;;;;;2.38;1.50;;;;;;;15.75;75.95;100987.63;5072900;28;20484;-68
2021/08/05 02:35:42;;;;;;;2.38;1.90;;;;;;;15.78;75.39;100984.53;5072416;28;20099;-68
2021/08/05 02:38:08;;;;;;;2.67;1.70;;;;;;;15.79;75.05;100983.53;5071809;28;20040;-69
2021/08/05 02:40:35;;;;;;;3.08;1.63;;;;;;;15.76;74.71;100984.75;5072681;28;20085;-68
2021/08/05 02:43:04;;;;;;;2.40;1.63;;;;;;;15.82;75.13;100978.59;5071716;28;20033;-69
2021/08/05 02:45:30;;;;;;;3.75;1.33;;;;;;;15.84;74.82;100967.63;5070802;28;20040;-68
2021/08/05 02:47:57;;;;;;;3.53;1.52;;;;;;;15.82;74.60;100975.06;5070318;28;20070;-68
2021/08/05 02:50:24;;;;;;;2.58;1.65;;;;;;;15.81;75.08;100976.09;5071339;28;20032;-68
2021/08/05 02:52:50;;;;;;;1.48;1.33;;;;;;;15.76;74.61;100973.16;5071498;28;20079;-68
2021/08/05 02:55:15;;;;;;;2.80;1.97;;;;;;;15.76;74.86;100971.28;5071129;28;20040;-68
2021/08/05 02:57:41;;;;;;;3.20;1.80;;;;;;;15.83;74.49;100968.69;5071244;28;20078;-68
2021/08/05 03:00:07;;;;;;;4.72;1.35;;;;;;;15.73;74.89;100966.31;5071571;28;20056;-68
2021/08/05 03:02:34;;;;;;;;;;;;;;;15.74;75.23;100964.44;5071389;28;20469;-68
2021/08/05 03:04:59;;;;;;;5.22;1.80;;;;;;;15.69;75.31;100956.91;5072020;28;19909;-68
2021/08/05 03:07:25;;;;;;;6.87;1.63;;;;;;;15.70;75.81;100963.13;5070637;28;20048;-68
2021/08/05 03:09:51;;;;;;;3.53;1.50;;;;;;;15.65;76.38;100962.84;5071142;28;20060;-68
2021/08/05 03:12:16;;;;;;;2.90;1.73;;;;;;;15.60;75.57;100976.88;5070727;28;20056;-68
2021/08/05 03:14:42;;;;;;;4.47;1.70;;;;;;;15.58;75.64;100963.59;5070907;28;20770;-69
2021/08/05 03:17:07;;;;;;;1.83;1.50;;;;;;;15.63;75.89;100965.72;5071412;28;20034;-68
2021/08/05 03:19:32;;;;;;;1.63;1.43;;;;;;;15.63;75.81;100963.88;5070804;28;20123;-69
2021/08/05 03:21:58;;;;;;;1.90;1.70;;;;;;;15.62;76.30;100964.91;5071623;28;20055;-69
2021/08/05 03:24:23;;;;;;;2.27;1.57;;;;;;;15.68;75.82;100962.47;5070813;28;20066;-68
2021/08/05 03:26:49;;;;;;;1.93;1.37;;;;;;;15.61;75.30;100963.22;5070873;28;20024;-68
2021/08/05 03:29:14;;;;;;;2.07;1.50;;;;;;;15.57;75.52;100961.94;5070011;28;20036;-68
2021/08/05 03:31:39;;;;;;;3.00;1.80;;;;;;;15.56;75.88;100964.81;5069978;28;20450;-68
2021/08/05 03:34:04;;;;;;;1.90;1.53;;;;;;;15.54;76.04;100965.00;5071511;28;20028;-68
2021/08/05 03:36:30;;;;;;;6.13;1.87;;;;;;;15.54;76.38;100959.63;5071335;28;20033;-69
2021/08/05 03:38:55;;;;;;;6.87;2.50;;;;;;;15.53;76.88;100963.34;5071298;28;20037;-68
2021/08/05 03:41:21;;;;;;;3.27;1.80;;;;;;;15.55;76.46;100961.31;5070154;28;20146;-68
2021/08/05 03:43:46;;;;;;;1.97;1.60;;;;;;;15.57;75.82;100959.25;5070240;28;20208;-69
2021/08/05 03:46:11;;;;;;;2.00;1.60;;;;;;;15.58;76.16;100955.53;5070193;28;20044;-68
2021/08/05 03:48:37;;;;;;;2.00;1.80;;;;;;;15.54;75.77;100956.94;5070489;28;20500;-68
2021/08/05 03:51:05;;;;;;;3.30;1.80;;;;;;;15.50;76.52;100962.88;5071195;28;20049;-68
2021/08/05 03:53:31;;;;;;;3.78;1.55;;;;;;;15.45;75.93;100950.00;5069944;28;20555;-68
2021/08/05 03:55:56;;;;;;;4.90;1.67;;;;;;;15.57;76.41;100947.66;5070646;28;20099;-68
2021/08/05 03:58:21;;;;;;;5.47;1.93;;;;;;;15.59;76.38;100946.47;5069668;28;20116;-68
2021/08/05 04:00:47;;;;;;;4.23;1.93;;;;;;;15.57;76.63;100948.50;5070201;28;20086;-68
2021/08/05 04:03:12;;;;;;;4.77;1.97;;;;;;;15.60;75.92;100944.59;5053028;28;20044;-68
2021/08/05 04:05:38;;;;;;;1.67;1.53;;;;;;;15.62;75.51;100939.84;5070826;28;20132;-68
2021/08/05 04:08:03;;;;;;;3.97;1.40;;;;;;;15.58;74.98;100942.06;5070439;28;20024;-68
2021/08/05 04:10:28;;;;;;;2.73;1.70;;;;;;;15.62;75.23;100942.53;5070777;28;20151;-69
2021/08/05 04:12:54;;;;;;;2.60;1.40;;;;;;;15.55;74.68;100937.09;5069700;28;20036;-68
2021/08/05 04:15:21;;;;;;;3.07;1.67;;;;;;;15.62;74.84;100942.53;5070478;28;20043;-69
2021/08/05 04:17:46;;;;;;;4.38;1.50;;;;;;;15.60;74.24;100936.53;5070407;28;20103;-68
2021/08/05 04:20:12;;;;;;;2.10;1.60;;;;;;;15.57;74.87;100939.59;5069480;28;20056;-68
2021/08/05 04:22:38;;;;;;;3.08;1.55;;;;;;;15.63;75.43;100941.50;5070618;28;20043;-68
2021/08/05 04:25:05;;;;;;;3.43;1.37;;;;;;;15.58;73.84;100943.94;5069231;28;20358;-68
2021/08/05 04:27:31;;;;;;;2.20;1.58;;;;;;;15.60;74.54;100948.09;5068795;28;20094;-68
2021/08/05 04:29:56;;;;;;;4.78;1.67;;;;;;;15.62;74.22;100948.75;5070381;28;20044;-68
2021/08/05 04:32:21;;;;;;;5.00;1.50;;;;;;;15.66;74.04;100946.50;5070361;28;20047;-69
2021/08/05 04:34:48;;;;;;;1.60;1.20;;;;;;;15.61;74.25;100948.94;5069105;28;20047;-68
2021/08/05 04:37:14;;;;;;;;;;;;;;;15.71;73.85;100945.97;5069621;28;20453;-69
2021/08/05 04:39:39;;;;;;;;;;;;;;;15.66;74.31;100945.66;5069752;28;19908;-68
2021/08/05 04:42:04;;;;;;;3.63;2.27;;;;;;;15.60;74.51;100953.50;5069386;28;19926;-68
2021/08/05 04:44:30;;;;;;;3.20;1.43;;;;;;;15.62;74.09;100939.84;5070076;28;20028;-68
2021/08/05 04:46:55;;;;;;;2.30;1.40;;;;;;;15.69;74.40;100937.22;5068898;28;20043;-69
2021/08/05 04:49:20;;;;;;;4.03;1.77;;;;;;;15.69;74.02;100939.94;5069478;28;20067;-68
2021/08/05 04:51:47;;;;;;;2.00;1.50;;;;;;;15.71;73.73;100937.88;5069998;28;20657;-69
2021/08/05 04:54:12;;;;;;;6.00;2.10;;;;;;;15.74;73.71;100942.91;5069997;28;20432;-69
2021/08/05 04:56:37;;;;;;;4.30;1.70;;;;;;;15.73;73.89;100935.84;5069696;28;20029;-68
2021/08/05 04:59:03;;;;;;;2.17;1.73;;;;;;;15.75;73.89;100942.69;5070091;28;20123;-69
2021/08/05 05:01:28;;;;;;;5.07;1.67;;;;;;;15.79;73.93;100940.47;5069281;28;20090;-68
2021/08/05 05:03:54;;;;;;;2.67;1.70;;;;;;;15.77;73.23;100932.56;5068698;28;20059;-69
2021/08/05 05:06:19;;;;;;;3.63;1.40;;;;;;;15.73;74.14;100930.44;5051240;28;20036;-69
2021/08/05 05:08:45;;;;;;;2.67;1.40;;;;;;;15.77;74.78;100931.75;5068118;28;20043;-69
2021/08/05 05:11:10;;;;;;;6.75;1.80;;;;;;;15.74;74.74;100932.97;5069207;28;20082;-68
2021/08/05 05:13:36;;;;;;;1.90;1.43;;;;;;;15.75;74.52;100928.41;5069540;28;20447;-68
2021/08/05 05:16:01;;;;;;;2.90;1.73;;;;;;;15.75;74.61;100931.94;5069359;28;20182;-68
2021/08/05 05:18:27;;;;;;;3.27;1.97;;;;;;;15.78;74.35;100934.25;5069113;28;20035;-69
2021/08/05 05:20:53;;;;;;;5.00;1.57;;;;;;;15.79;74.67;100935.09;5069234;28;20029;-69
2021/08/05 05:23:19;;;;;;;6.45;2.60;;;;;;;15.79;74.40;100932.38;5069606;28;20033;-69
2021/08/05 05:25:45;;;;;;;2.25;1.17;;;;;;;15.81;74.55;100931.16;5069612;28;20086;-68
2021/08/05 05:28:11;;;;;;;2.15;1.27;;;;;;;15.84;74.50;100924.56;5069254;28;20158;-69
2021/08/05 05:30:38;;;;;;;4.55;1.50;;;;;;;15.87;74.23;100926.88;5069832;28;20040;-68
2021/08/05 05:33:04;;;;;;;5.28;1.60;;;;;;;15.90;73.52;100925.66;5069390;28;20020;-69
2021/08/05 05:35:30;;;;;;;2.95;1.38;;;;;;;15.96;73.83;100930.25;5069487;28;20125;-68
2021/08/05 05:37:57;;;;;;;4.65;1.30;;;;;;;15.89;73.88;100924.00;5069362;28;20032;-68
2021/08/05 05:40:23;;;;;;;1.95;1.38;;;;;;;15.92;74.02;100921.75;5068852;28;20111;-68
2021/08/05 05:42:49;;;;;;;2.83;1.48;;;;;;;15.97;73.74;100927.38;5068855;28;20075;-69
2021/08/05 05:45:16;;;;;;;2.65;1.38;;;;;;;15.96;74.16;100927.56;5069271;28;20060;-68
2021/08/05 05:47:42;;;;;;;1.67;1.55;;;;;;;16.03;73.60;100926.59;5067904;28;20028;-68
2021/08/05 05:50:09;;;;;;;1.52;1.20;;;;;;;16.17;73.75;100926.72;5051969;28;20094;-68
2021/08/05 05:52:35;;;;;;;3.92;1.40;;;;;;;16.25;73.30;100921.19;5069239;28;20040;-68
2021/08/05 05:55:01;;;;;;;2.90;1.80;;;;;;;16.46;72.86;100929.22;5069284;28;20033;-68
2021/08/05 05:57:26;;;;;;;2.10;1.30;;;;;;;16.47;72.96;100927.34;5069344;28;20773;-68
2021/08/05 05:59:51;;;;;;;3.80;1.57;;;;;;;16.43;72.20;100928.78;5068320;28;20405;-68
2021/08/05 06:02:17;;;;;;;2.73;1.60;;;;;;;16.61;73.45;100925.59;5051714;28;20133;-68
2021/08/05 06:04:42;;;;;;;2.33;1.47;;;;;;;16.74;72.38;100932.91;5068801;28;20064;-68
2021/08/05 06:07:07;;;;;;;2.20;1.60;;;;;;;16.82;71.37;100932.78;5068804;28;20078;-68
2021/08/05 06:09:33;;;;;;;3.67;1.60;;;;;;;16.93;71.44;100920.59;5068124;28;20113;-68
2021/08/05 06:11:58;;;;;;;1.87;1.40;;;;;;;17.11;71.37;100923.59;5069420;28;20028;-68
2021/08/05 06:14:23;;;;;;;2.43;1.67;;;;;;;17.25;71.78;100936.09;5068131;28;20032;-68
2021/08/05 06:16:49;;;;;;;2.20;1.97;;;;;;;17.23;70.32;100932.78;5069167;28;20036;-69
2021/08/05 06:19:14;;;;;;;2.27;1.70;;;;;;;17.72;70.58;100931.69;5069388;28;20085;-68
2021/08/05 06:21:40;;;;;;;2.60;1.20;;;;;;;17.87;69.78;100938.78;5071669;28;20469;-68
2021/08/05 06:24:06;;;;;;;2.05;1.63;;;;;;;17.52;69.68;100922.69;5071757;28;20029;-69
2021/08/05 06:26:31;;;;;;;5.78;2.33;;;;;;;17.38;69.88;100927.22;5072613;28;20025;-68
2021/08/05 06:28:57;;;;;;;5.03;1.93;;;;;;;17.42;71.35;100938.44;5071428;28;20106;-69
2021/08/05 06:31:22;;;;;;;5.07;1.73;;;;;;;17.61;70.79;100940.38;5072638;28;20036;-69
2021/08/05 06:33:51;;;;;;;3.70;2.07;;;;;;;17.58;69.71;100939.94;5072630;28;20405;-69
2021/08/05 06:36:17;;;;;;;3.53;2.05;;;;;;;17.52;70.36;100941.59;5072378;28;20181;-68
2021/08/05 06:38:42;;;;;;;3.97;2.13;;;;;;;17.49;71.69;100936.59;5071779;28;20037;-68
2021/08/05 06:41:08;;;;;;;4.77;1.90;;;;;;;17.28;70.42;100933.00;5072547;28;20108;-69
2021/08/05 06:43:33;;;;;;;2.87;1.90;;;;;;;17.39;72.01;100936.97;5072581;28;20127;-69
2021/08/05 06:45:59;;;;;;;2.97;1.80;;;;;;;17.50;71.50;100938.25;5070830;28;20025;-69
2021/08/05 06:48:24;;;;;;;3.43;2.03;;;;;;;17.59;70.71;100934.34;5072584;28;20434;-68
2021/08/05 06:50:49;;;;;;;2.87;1.77;;;;;;;17.60;71.03;100930.59;5054776;28;20028;-68
2021/08/05 06:53:15;;;;;;;2.77;1.50;;;;;;;17.68;71.12;100937.69;5072313;28;20039;-69
2021/08/05 06:55:40;;;;;;;4.40;2.20;;;;;;;17.75;70.00;100940.38;5071160;28;20071;-68
2021/08/05 06:58:05;;;;;;;2.90;2.10;;;;;;;17.74;70.48;100939.56;5072223;28;20288;-68
2021/08/05 07:00:31;;;;;;;2.97;1.63;;;;;;;17.63;70.47;100946.41;5072017;28;20048;-68
2021/08/05 07:02:56;;;;;;;5.83;1.87;;;;;;;17.88;69.73;100945.84;5071302;28;20047;-68
2021/08/05 07:05:22;;;;;;;4.17;1.50;;;;;;;18.13;70.43;100940.66;5071119;28;20524;-68
2021/08/05 07:07:47;;;;;;;4.43;1.53;;;;;;;18.47;68.84;100946.88;5071711;28;20040;-69
2021/08/05 07:10:12;;;;;;;3.63;1.70;;;;;;;18.40;68.87;100940.66;5071137;28;20085;-68
2021/08/05 07:12:38;;;;;;;4.03;2.00;;;;;;;18.14;68.95;100934.22;5072109;28;20036;-68
2021/08/05 07:15:05;;;;;;;4.82;2.13;;;;;;;18.32;68.15;100941.69;5071581;28;20056;-68
2021/08/05 07:17:31;;;;;;;2.78;1.55;;;;;;;18.23;66.11;100934.84;5071841;28;20021;-68
2021/08/05 07:19:56;;;;;;;3.63;1.73;;;;;;;18.42;66.79;100942.09;5070944;28;20151;-69
2021/08/05 07:22:21;;;;;;;3.97;1.90;;;;;;;18.46;68.23;100942.53;5071588;28;20110;-69
2021/08/05 07:24:47;;;;;;;3.87;1.87;;;;;;;18.52;63.41;100942.53;5071737;28;20044;-69
2021/08/05 07:27:12;;;;;;;3.57;1.50;;;;;;;18.70;62.31;100943.72;5053306;28;20123;-69
2021/08/05 07:29:38;;;;;;;4.33;1.90;;;;;;;18.85;64.77;100941.66;5071732;28;20116;-69
2021/08/05 07:32:05;;;;;;;4.33;1.90;;;;;;;19.12;64.33;100944.25;5070852;28;20464;-69
2021/08/05 07:34:34;;;;;;;2.38;1.83;;;;;;;18.63;65.13;100940.22;5071519;28;20046;-69
2021/08/05 07:37:01;;;;;;;3.20;1.88;;;;;;;18.76;63.28;100938.34;5070195;28;20036;-69
2021/08/05 07:39:27;;;;;;;3.25;1.70;;;;;;;18.58;62.41;100937.31;5070839;28;20032;-69
2021/08/05 07:41:52;;;;;;;5.43;2.00;;;;;;;18.86;63.15;100935.19;5071218;28;20510;-68
2021/08/05 07:44:18;;;;;;;10.23;1.60;;;;;;;19.00;62.46;100940.56;5070398;28;20036;-69
2021/08/05 07:46:44;;;;;;;1.25;1.13;;;;;;;19.05;60.26;100932.63;5071071;28;20029;-69
2021/08/05 07:49:10;;;;;;;4.47;1.63;;;;;;;19.05;61.97;100924.50;5053882;28;20074;-69
2021/08/05 07:51:35;;;;;;;6.07;2.22;;;;;;;18.83;61.95;100932.91;5071187;28;20127;-69
2021/08/05 07:54:01;;;;;;;8.73;2.00;;;;;;;19.28;63.60;100930.25;5070216;28;20429;-69
2021/08/05 07:56:27;;;;;;;4.93;1.80;;;;;;;19.23;64.56;100921.94;5070715;28;20040;-69
2021/08/05 07:58:52;;;;;;;5.13;1.88;;;;;;;19.49;62.66;100925.56;5071116;28;20115;-69
2021/08/05 08:01:17;;;;;;;1.80;1.40;;;;;;;19.52;62.98;100927.81;5071169;28;20108;-69
2021/08/05 08:03:43;;;;;;;1.37;0.97;;;;;;;19.87;59.78;100922.00;5069938;28;20033;-69
2021/08/05 08:06:08;;;;;;;1.83;1.30;;;;;;;19.51;59.98;100929.72;5070594;28;20036;-69
2021/08/05 08:08:34;;;;;;;4.53;1.80;;;;;;;19.65;58.04;100926.94;5053343;28;20071;-69
2021/08/05 08:11:00;;;;;;;2.20;1.45;;;;;;;19.95;58.60;100922.56;5070041;28;20040;-69
2021/08/05 08:13:27;;;;;;;3.13;1.80;;;;;;;19.95;60.28;100924.47;5069752;28;20029;-70
2021/08/05 08:15:52;;;;;;;;;;;;;;;19.87;60.69;100916.59;5070043;28;20134;-69
2021/08/05 08:18:17;;;;;;;2.03;1.83;;;;;;;19.45;60.93;100919.72;5070840;28;20014;-69
2021/08/05 08:20:44;;;;;;;3.73;1.63;;;;;;;19.28;60.31;100916.72;5070710;28;20111;-69
2021/08/05 08:23:09;;;;;;;3.38;2.33;;;;;;;19.20;59.53;100914.25;5069598;28;20040;-69
2021/08/05 08:25:35;;;;;;;3.30;2.00;;;;;;;19.19;60.57;100915.28;5069599;28;20028;-69
2021/08/05 08:28:00;;;;;;;9.70;2.27;;;;;;;19.30;62.38;100911.91;5068887;28;20047;-69
2021/08/05 08:30:26;;;;;;;5.27;2.67;;;;;;;19.34;62.54;100905.03;5070693;28;20045;-69
2021/08/05 08:32:51;;;;;;;3.17;2.10;;;;;;;19.62;61.91;100903.81;5069323;28;20048;-69
2021/08/05 08:35:17;;;;;;;3.57;1.83;;;;;;;20.23;60.09;100905.88;5070474;28;20298;-69
2021/08/05 08:37:43;;;;;;;3.15;1.60;;;;;;;20.90;58.98;100907.91;5068771;28;20052;-69
2021/08/05 08:40:11;;;;;;;3.03;1.50;;;;;;;20.58;58.91;100899.09;5069067;28;20514;-70
2021/08/05 08:42:38;;;;;;;4.22;1.98;;;;;;;21.14;58.38;100895.31;5067671;28;20068;-69
2021/08/05 08:45:04;;;;;;;5.90;2.50;;;;;;;20.52;56.97;100898.06;5068541;28;20071;-69
2021/08/05 08:47:30;;;;;;;1.40;1.30;;;;;;;20.56;59.18;100898.50;5068511;28;20470;-69
2021/08/05 08:49:56;;;;;;;4.28;1.50;;;;;;;20.47;57.41;100894.38;5068916;28;20036;-69
2021/08/05 08:52:25;;;;;;;4.70;1.48;;;;;;;20.45;59.98;100897.31;5068779;28;20479;-70
2021/08/05 08:54:51;;;;;;;2.00;1.40;;;;;;;20.87;56.37;100887.47;5069765;28;20027;-70
2021/08/05 08:57:20;;;;;;;1.88;1.40;;;;;;;21.69;55.32;100886.19;5070057;28;20062;-70
2021/08/05 08:59:47;;;;;;;3.97;1.60;;;;;;;21.60;53.31;100874.00;5069339;28;20524;-70
2021/08/05 09:02:14;;;;;;;2.45;1.60;;;;;;;21.32;56.52;100874.59;5070103;28;20024;-70
2021/08/05 09:04:40;;;;;;;4.57;1.30;;;;;;;21.54;54.14;100878.50;5052282;28;20062;-69
2021/08/05 09:07:06;;;;;;;3.65;2.10;;;;;;;21.54;53.94;100872.22;5069857;28;20063;-70
2021/08/05 09:09:32;;;;;;;3.47;1.70;;;;;;;22.43;54.83;100883.06;5070261;28;20473;-70
2021/08/05 09:11:57;;;;;;;2.03;1.37;;;;;;;21.65;53.92;100883.09;5069227;28;20335;-70
2021/08/05 09:14:42;;;;;;;3.33;1.40;;;;;;;22.06;52.93;100886.84;5069908;28;20029;-70
2021/08/05 09:17:15;;;;;;;4.82;1.90;;;;;;;21.45;49.21;100885.31;5068919;28;20033;-70
2021/08/05 09:19:40;;;;;;;4.40;2.13;;;;;;;21.59;48.98;100875.09;5069909;28;20162;-70
2021/08/05 09:22:05;;;;;;;3.60;1.57;;;;;;;20.95;52.00;100878.19;5070181;28;20119;-70
2021/08/05 09:24:31;;;;;;;2.53;1.40;;;;;;;21.17;52.95;100877.72;5069847;28;20385;-70
2021/08/05 09:26:59;;;;;;;8.60;2.30;;;;;;;21.78;52.27;100873.94;5069765;28;20070;-70
2021/08/05 09:29:25;;;;;;;3.03;1.35;;;;;;;22.30;52.38;100882.25;5068577;28;20028;-70
2021/08/05 09:31:50;;;;;;;2.67;1.70;;;;;;;22.23;50.56;100876.13;5069824;28;20047;-70
2021/08/05 09:34:18;;;;;;;3.70;1.50;;;;;;;21.70;49.07;100866.94;5068849;28;20102;-70
2021/08/05 09:36:44;;;;;;;2.17;1.52;;;;;;;21.95;51.48;100881.41;5068634;28;20033;-70
2021/08/05 09:39:22;;;;;;;3.30;1.33;;;;;;;22.03;48.08;100870.16;5069983;28;20468;-70
2021/08/05 09:42:01;;;;;;;1.92;1.23;;;;;;;22.16;48.51;100867.22;5051880;28;20045;-70
2021/08/05 09:44:43;;;;;;;3.30;1.23;;;;;;;21.81;49.65;100870.72;5069568;28;20029;-70
2021/08/05 09:47:14;;;;;;;2.35;1.70;;;;;;;21.68;48.52;100868.22;5068719;28;20441;-70
2021/08/05 09:50:01;;;;;;;3.22;1.40;;;;;;;21.84;48.39;100866.72;5068788;28;20054;-70
2021/08/05 09:52:31;;;;;;;2.35;1.95;;;;;;;21.63;49.33;100866.22;5068695;28;20075;-70
2021/08/05 09:54:58;;;;;;;3.17;1.55;;;;;;;22.19;50.28;100863.19;5068668;28;20074;-70
2021/08/05 09:57:35;;;;;;;1.33;1.23;;;;;;;21.68;49.67;100863.63;5071515;28;20024;-70
2021/08/05 10:00:04;;;;;;;3.08;1.95;;;;;;;21.52;48.62;100852.59;5073132;28;20477;-70
2021/08/05 10:02:46;;;;;;;5.10;1.80;;;;;;;21.79;49.63;100856.56;5073120;28;20040;-70
2021/08/05 10:05:25;;;;;;;1.75;1.30;;;;;;;21.91;49.56;100853.84;5071962;28;20078;-70
2021/08/05 10:07:52;;;;;;;1.90;1.40;;;;;;;22.31;50.34;100856.75;5072768;28;20106;-70
2021/08/05 10:10:25;;;;;;;6.25;1.58;;;;;;;21.53;48.58;100840.69;5073060;28;20178;-70
2021/08/05 10:12:56;;;;;;;2.03;1.23;;;;;;;21.29;48.74;100846.03;5072297;28;20028;-70
2021/08/05 10:15:22;;;;;;;2.38;1.25;;;;;;;21.58;48.69;100841.63;5072965;28;20090;-70
2021/08/05 10:17:53;;;;;;;1.55;1.33;;;;;;;22.18;48.44;100845.25;5071847;28;20434;-70
2021/08/05 10:20:19;;;;;;;3.60;1.48;;;;;;;21.60;49.52;100841.41;5073027;28;20155;-69
2021/08/05 10:22:47;;;;;;;2.92;1.60;;;;;;;21.59;47.91;100837.88;5071881;28;20035;-70
2021/08/05 10:25:14;;;;;;;2.20;1.23;;;;;;;21.53;49.89;100841.50;5072675;28;20036;-70
2021/08/05 10:27:40;;;;;;;2.38;1.33;;;;;;;22.47;49.35;100848.91;5072047;28;20071;-70
2021/08/05 10:30:10;;;;;;;3.42;1.67;;;;;;;22.48;47.71;100835.06;5072996;28;20025;-70
2021/08/05 10:32:36;;;;;;;7.60;1.50;;;;;;;22.67;48.64;100835.72;5071620;28;20040;-70
2021/08/05 10:35:02;;;;;;;2.47;1.40;;;;;;;22.70;47.01;100840.69;5054941;28;20036;-70
2021/08/05 10:37:28;;;;;;;3.05;1.45;;;;;;;22.97;47.99;100837.44;5072304;28;20054;-70
2021/08/05 10:39:55;;;;;;;2.78;1.30;;;;;;;23.12;48.41;100829.56;5071576;28;20185;-70
2021/08/05 10:42:21;;;;;;;2.33;1.25;;;;;;;22.71;45.81;100834.19;5072026;28;20033;-70
2021/08/05 10:44:49;;;;;;;2.88;1.50;;;;;;;23.16;45.10;100819.84;5071620;28;20107;-70
2021/08/05 10:47:24;;;;;;;2.22;1.25;;;;;;;22.97;45.22;100821.09;5071157;28;20032;-70
2021/08/05 10:49:56;;;;;;;6.03;1.70;;;;;;;22.60;47.47;100820.63;5072536;28;20044;-70
2021/08/05 10:52:39;;;;;;;2.60;1.25;;;;;;;22.81;47.42;100811.78;5072170;28;20426;-70
2021/08/05 10:55:06;;;;;;;1.85;1.40;;;;;;;22.61;45.19;100820.34;5054605;28;20036;-70
2021/08/05 10:57:32;;;;;;;3.00;1.15;;;;;;;22.92;48.09;100815.53;5070996;28;20111;-70
2021/08/05 11:00:21;;;;;;;2.90;1.40;;;;;;;22.49;46.87;100814.13;5071350;28;20115;-70
2021/08/05 11:02:49;;;;;;;1.98;1.23;;;;;;;22.76;47.15;100804.34;5072096;28;20457;-70
2021/08/05 11:05:24;;;;;;;2.67;1.58;;;;;;;22.55;46.03;100807.75;5072155;28;20132;-70
2021/08/05 11:07:51;;;;;;;5.22;1.27;;;;;;;22.75;46.10;100799.97;5070494;28;20530;-72
2021/08/05 11:10:19;;;;;;;2.90;1.40;;;;;;;22.83;45.53;100803.38;5072071;28;20626;-72
2021/08/05 11:12:49;;;;;;;1.75;1.38;;;;;;;23.64;45.89;100797.75;5071797;28;20142;-72
2021/08/05 11:15:21;;;;;;;5.78;1.30;;;;;;;23.78;42.26;100785.47;5070868;28;20036;-72
2021/08/05 11:18:06;;;;;;;2.60;1.40;;;;;;;25.02;42.28;100791.44;5070100;28;20040;-72
2021/08/05 11:20:31;;;;;;;2.45;1.00;;;;;;;25.21;40.53;100784.53;5052619;28;20064;-71
2021/08/05 11:22:56;;;;;;;3.63;1.57;;;;;;;25.08;38.29;100784.97;5071036;28;20105;-72
2021/08/05 11:25:22;;;;;;;8.00;1.80;;;;;;;26.67;39.34;100775.94;5071667;28;20033;-72
2021/08/05 11:28:18;;;;;;;3.95;1.35;;;;;;;27.72;37.53;100776.59;5053716;28;20318;-70